Startpagina
METAR-TAF:

METAR-TAF

Vliegvelden :

Jersey Airport

Jersey,

breedte: 49-13N, lengte: 002-12W, hoogte: 84 m

Actueel weer

Dit bericht is 15 minuten geleden gemaakt, om 23:50 UTC
Wind 14 kt uit het oostnoordoosten
Temperatuur 14°C
Vochtigheid 72%
Druk 1019 hPa
Zicht 10 km of meer

METAR: EGJJ 312350Z AUTO 07014KT 9999 NCD 14/09 Q1019

Tijdstip: 01:05 (00:05 UTC)

Verwachting

Dit bericht is 1 uur en het 9 minuten geleden gemaakt, om 22:56 UTC
Verwachting geldig van 01 om 00 UTC tot 01 om 09 UTC
Wind 14 kt uit het oostnoordoosten
Zicht 10 km of meer
geen wolken onder 1500 m en geen cumulonimbus
Kans 30% :
Tijdelijke
van 01 om 00 UTC tot 01 om 03 UTC
Wind 16 kt uit het oostnoordoosten met uitschieters tot 26 kt

TAF: EGJJ 312256Z 0100/0109 07014KT CAVOK PROB30 TEMPO 0100/0103 07016G26KT

Waarnemingen en weersverwachtingen van meer dan 4000 vliegvelden (METAR en TAF).

De beschikbare stations zijn de gele en rode punten op de kaart.

Ga met uw muis naar het station om de naam te zien.

Klik dan om waarnemingen en weersverwachtingen te zien.

kaart wijzigen: klik op de groene knoppen met een zwart kruis om in te zoomen, op de groene knop met een streepje om uit te zoomen of op de groene pijlen voor aangrenzende kaarten.


METAR-TAF: